Time;durP1;ratioP1;P1;durP2;ratioP2;P2;SDS_P1;SDS_P2;PMS_P1;PMS_P2;Temp;Humidity;BMP_temperature;BMP_pressure;BME280_temperature;BME280_humidity;BME280_pressure;Samples;Min_cycle;Max_cycle;Signal;HPM_P1;HPM_P2
2023/10/02 00:01:17;;;;;;;18.93;8.50;;;11.30;46.80;;;;;;5022123;28;46531;-80
2023/10/02 00:04:15;;;;;;;18.60;8.63;;;11.40;46.90;;;;;;5024328;28;46470;-81
2023/10/02 00:06:36;;;;;;;18.33;8.27;;;11.30;46.90;;;;;;5021350;28;46778;-80
2023/10/02 00:09:04;;;;;;;19.07;7.63;;;11.20;47.00;;;;;;5021539;28;46911;-79
2023/10/02 00:11:41;;;;;;;29.23;9.20;;;11.20;47.30;;;;;;5019908;28;46452;-79
2023/10/02 00:16:59;;;;;;;16.20;7.87;;;10.90;47.60;;;;;;5020328;28;46471;-79
2023/10/02 00:19:32;;;;;;;18.50;8.70;;;10.90;47.90;;;;;;5020541;28;46483;-77
2023/10/02 00:22:04;;;;;;;22.83;9.70;;;10.80;49.20;;;;;;5020764;28;46650;-79
2023/10/02 00:24:32;;;;;;;21.07;8.73;;;10.80;48.00;;;;;;5021231;28;46425;-79
2023/10/02 00:26:58;;;;;;;18.50;9.10;;;10.70;48.10;;;;;;5020940;28;46658;-78
2023/10/02 00:29:25;;;;;;;22.40;9.47;;;10.80;48.20;;;;;;5022904;28;46404;-80
2023/10/02 00:31:51;;;;;;;20.73;8.50;;;10.80;48.00;;;;;;5023573;28;46788;-80
2023/10/02 00:34:30;;;;;;;15.97;7.50;;;10.80;48.00;;;;;;5021438;28;46353;-81
2023/10/02 00:36:56;;;;;;;24.73;8.93;;;10.80;48.00;;;;;;5021004;28;46749;-79
2023/10/02 00:39:24;;;;;;;24.00;9.13;;;10.80;48.00;;;;;;5022512;28;46624;-80
2023/10/02 00:47:44;;;;;;;19.60;9.03;;;10.80;48.90;;;;;;5020549;28;46128;-79
2023/10/02 00:50:18;;;;;;;23.93;10.37;;;10.80;47.60;;;;;;5001618;28;46791;-79
2023/10/02 00:52:49;;;;;;;25.93;8.90;;;10.80;47.70;;;;;;5020683;28;46421;-80
2023/10/02 00:55:20;;;;;;;25.63;9.23;;;10.70;48.00;;;;;;5019172;28;46510;-79
2023/10/02 00:57:51;;;;;;;22.33;8.43;;;10.60;48.20;;;;;;5020101;28;46935;-79
2023/10/02 01:00:19;;;;;;;18.63;8.90;;;10.60;48.30;;;;;;5002943;28;46437;-78
2023/10/02 01:02:46;;;;;;;21.90;9.20;;;10.50;48.40;;;;;;5020194;28;45826;-79
2023/10/02 01:05:16;;;;;;;19.40;9.10;;;10.50;48.60;;;;;;5018645;28;46521;-75
2023/10/02 01:07:46;;;;;;;18.10;8.63;;;10.50;48.60;;;;;;4999334;28;48258;-79
2023/10/02 01:10:18;;;;;;;25.03;9.60;;;10.50;48.80;;;;;;5019018;28;46551;-77
2023/10/02 01:12:51;;;;;;;22.33;9.60;;;10.30;48.80;;;;;;5017957;28;46363;-79
2023/10/02 01:15:19;;;;;;;22.30;9.13;;;10.40;48.90;;;;;;5019093;28;46655;-78
2023/10/02 01:17:48;;;;;;;19.00;8.63;;;10.40;48.80;;;;;;5019707;28;46569;-80
2023/10/02 01:23:16;;;;;;;20.23;9.20;;;10.50;48.60;;;;;;5019766;28;46545;-83
2023/10/02 01:25:45;;;;;;;19.70;8.37;;;10.50;48.40;;;;;;5021384;28;46966;-81
2023/10/02 01:28:13;;;;;;;25.97;11.10;;;10.50;48.30;;;;;;5022204;28;46618;-79
2023/10/02 01:30:40;;;;;;;23.40;9.20;;;10.50;48.30;;;;;;5020466;28;46477;-82
2023/10/02 01:33:12;;;;;;;21.67;8.70;;;10.60;48.40;;;;;;5020278;28;46440;-80
2023/10/02 01:35:46;;;;;;;21.90;9.33;;;10.60;48.40;;;;;;5003273;28;46491;-79
2023/10/02 01:38:31;;;;;;;22.67;9.10;;;10.60;48.40;;;;;;5019928;28;46361;-79
2023/10/02 01:43:33;;;;;;;20.87;9.10;;;10.60;48.50;;;;;;5019466;28;46547;-81
2023/10/02 01:46:00;;;;;;;22.97;9.70;;;10.50;48.50;;;;;;5018215;28;46413;-81
2023/10/02 01:48:48;;;;;;;21.70;8.50;;;10.50;48.70;;;;;;5000014;28;47654;-80
2023/10/02 01:51:16;;;;;;;24.80;9.57;;;10.60;48.80;;;;;;5018254;28;46857;-80
2023/10/02 01:53:48;;;;;;;22.13;8.83;;;10.50;48.80;;;;;;5001435;28;46677;-79
2023/10/02 01:56:16;;;;;;;23.90;9.87;;;10.40;48.80;;;;;;5018978;28;46540;-79
2023/10/02 01:58:44;;;;;;;23.80;9.90;;;10.40;48.90;;;;;;5018175;28;46698;-79
2023/10/02 02:01:10;;;;;;;20.13;9.03;;;10.50;49.00;;;;;;5019884;28;46853;-80
2023/10/02 02:03:41;;;;;;;20.23;9.50;;;10.50;48.90;;;;;;5000667;28;46739;-79
2023/10/02 02:06:10;;;;;;;25.70;10.03;;;10.50;48.90;;;;;;5019086;28;46437;-80
2023/10/02 02:08:43;;;;;;;20.47;9.07;;;10.50;49.10;;;;;;5000560;28;48024;-80
2023/10/02 02:11:16;;;;;;;21.60;9.33;;;10.40;49.10;;;;;;5019358;28;46489;-79
2023/10/02 02:13:53;;;;;;;25.47;10.17;;;10.40;49.10;;;;;;5018922;28;46072;-79
2023/10/02 02:16:38;;;;;;;23.93;10.03;;;10.40;49.20;;;;;;5019570;28;47488;-80
2023/10/02 02:19:05;;;;;;;22.20;9.20;;;10.40;49.30;;;;;;5020653;28;47126;-79
2023/10/02 02:21:32;;;;;;;21.60;9.30;;;10.40;49.40;;;;;;5026846;28;46881;-80
2023/10/02 02:24:06;;;;;;;25.20;8.80;;;10.40;49.40;;;;;;5022490;28;46598;-82
2023/10/02 02:26:34;;;;;;;26.67;10.50;;;10.40;49.60;;;;;;5005706;28;46476;-80
2023/10/02 02:29:04;;;;;;;20.90;10.10;;;10.40;49.70;;;;;;5027197;28;46539;-80
2023/10/02 02:31:30;;;;;;;27.43;10.60;;;10.50;49.80;;;;;;5005540;28;46402;-80
2023/10/02 02:34:14;;;;;;;25.77;11.33;;;10.40;49.90;;;;;;5030349;28;46484;-83
2023/10/02 02:36:47;;;;;;;28.30;12.20;;;10.40;50.00;;;;;;5030378;28;46812;-80
2023/10/02 02:39:16;;;;;;;34.80;12.27;;;10.40;50.00;;;;;;5024297;28;47091;-83
2023/10/02 02:41:49;;;;;;;36.43;13.70;;;10.40;50.10;;;;;;5023398;28;45960;-81
2023/10/02 02:47:07;;;;;;;26.80;10.73;;;10.60;50.60;;;;;;5021603;28;46588;-78
2023/10/02 02:49:48;;;;;;;24.87;9.77;;;10.60;50.60;;;;;;5020911;28;46697;-80
2023/10/02 02:52:32;;;;;;;26.43;11.00;;;10.50;50.70;;;;;;5021941;28;46461;-79
2023/10/02 02:55:04;;;;;;;26.57;10.47;;;10.50;51.10;;;;;;5021916;28;46385;-81
2023/10/02 02:57:33;;;;;;;26.83;10.80;;;10.50;51.80;;;;;;5020953;28;46412;-81
2023/10/02 03:02:52;;;;;;;17.97;7.60;;;10.30;51.90;;;;;;5024039;28;46353;-79
2023/10/02 03:05:21;;;;;;;23.27;8.93;;;10.20;51.80;;;;;;5022887;28;46487;-80
2023/10/02 03:07:56;;;;;;;27.43;10.10;;;10.20;51.80;;;;;;5011557;28;46524;-80
2023/10/02 03:10:23;;;;;;;19.03;7.83;;;10.10;52.00;;;;;;5021909;28;47932;-80
2023/10/02 03:12:51;;;;;;;20.80;8.53;;;10.10;52.20;;;;;;5021818;28;46565;-80
2023/10/02 03:15:45;;;;;;;20.27;8.27;;;10.00;52.40;;;;;;5022074;28;46659;-80
2023/10/02 03:18:22;;;;;;;19.03;9.33;;;10.00;52.50;;;;;;5021269;28;46127;-79
2023/10/02 03:20:54;;;;;;;23.77;9.10;;;9.90;53.40;;;;;;5022977;28;47051;-80
2023/10/02 03:23:20;;;;;;;19.10;8.20;;;9.90;53.40;;;;;;5022268;28;45850;-79
2023/10/02 03:25:47;;;;;;;18.13;7.30;;;9.90;53.40;;;;;;5021297;28;46443;-79
2023/10/02 03:28:27;;;;;;;21.57;8.10;;;9.90;53.30;;;;;;5021419;28;46387;-79
2023/10/02 03:30:53;;;;;;;26.20;8.30;;;9.90;53.30;;;;;;5020348;28;46550;-80
2023/10/02 03:33:20;;;;;;;19.70;9.63;;;9.80;53.20;;;;;;5022146;28;46710;-80
2023/10/02 03:36:07;;;;;;;20.40;8.53;;;9.90;53.10;;;;;;5021438;28;46350;-79
2023/10/02 03:38:43;;;;;;;21.17;8.83;;;9.80;53.10;;;;;;5021993;28;46232;-80
2023/10/02 03:41:11;;;;;;;16.83;7.50;;;9.80;53.20;;;;;;5018708;28;48055;-79
2023/10/02 03:43:56;;;;;;;27.50;9.03;;;9.80;53.40;;;;;;5020793;28;46395;-79
2023/10/02 03:46:35;;;;;;;32.50;10.50;;;9.70;53.30;;;;;;5009139;28;46338;-80
2023/10/02 03:49:03;;;;;;;24.97;11.00;;;9.70;53.30;;;;;;5005464;28;46809;-80
2023/10/02 03:51:36;;;;;;;22.50;9.97;;;9.70;53.70;;;;;;5020391;28;46572;-79
2023/10/02 03:54:17;;;;;;;23.27;10.47;;;9.70;55.00;;;;;;5023143;28;46542;-81
2023/10/02 03:56:47;;;;;;;22.63;10.03;;;9.80;53.90;;;;;;5020403;28;46427;-79
2023/10/02 03:59:17;;;;;;;20.20;9.43;;;9.70;53.80;;;;;;5020913;28;46734;-79
2023/10/02 04:01:43;;;;;;;25.33;10.87;;;9.80;53.70;;;;;;5002458;28;48477;-80
2023/10/02 04:06:43;;;;;;;22.17;9.70;;;9.80;53.70;;;;;;5017508;28;45855;-79
2023/10/02 04:09:21;;;;;;;26.30;10.13;;;9.80;53.60;;;;;;5020988;28;46486;-79
2023/10/02 04:11:51;;;;;;;26.60;10.77;;;9.80;53.60;;;;;;5021503;28;46333;-80
2023/10/02 04:14:31;;;;;;;27.43;10.13;;;9.80;53.50;;;;;;5021128;28;45911;-80
2023/10/02 04:17:09;;;;;;;22.53;9.30;;;9.80;53.70;;;;;;5022455;28;46424;-80
2023/10/02 04:19:36;;;;;;;25.93;10.53;;;9.70;53.70;;;;;;5022469;28;46436;-80
2023/10/02 04:22:06;;;;;;;25.00;10.13;;;9.80;53.80;;;;;;5027360;28;46354;-79
2023/10/02 04:24:51;;;;;;;24.17;9.50;;;9.70;53.80;;;;;;5021214;28;46659;-79
2023/10/02 04:27:22;;;;;;;21.57;9.87;;;9.70;53.80;;;;;;5021569;28;46462;-80
2023/10/02 04:30:20;;;;;;;20.37;9.70;;;9.70;54.10;;;;;;5002079;28;46412;-79
2023/10/02 04:32:51;;;;;;;26.10;8.97;;;9.70;54.10;;;;;;5002427;28;47811;-79
2023/10/02 04:38:07;;;;;;;20.27;8.90;;;9.60;54.30;;;;;;5021862;28;46452;-78
2023/10/02 04:40:52;;;;;;;25.77;8.60;;;9.50;54.30;;;;;;5019165;28;46468;-79
2023/10/02 04:43:28;;;;;;;24.97;9.07;;;9.50;54.60;;;;;;5017846;28;46724;-80
2023/10/02 04:46:02;;;;;;;22.27;9.70;;;9.50;54.70;;;;;;5019118;28;46744;-79
2023/10/02 04:48:38;;;;;;;23.30;10.30;;;9.50;54.80;;;;;;5019625;28;45835;-78
2023/10/02 04:51:07;;;;;;;23.67;9.77;;;9.50;54.90;;;;;;5019946;28;46412;-79
2023/10/02 04:53:34;;;;;;;24.67;10.23;;;9.50;54.90;;;;;;5021521;28;46628;-79
2023/10/02 04:58:49;;;;;;;28.53;10.30;;;9.50;54.70;;;;;;5018343;28;46338;-79
2023/10/02 05:01:34;;;;;;;28.07;9.17;;;9.50;54.50;;;;;;5020314;28;46687;-80
2023/10/02 05:04:07;;;;;;;22.30;9.90;;;9.60;54.60;;;;;;5019656;28;47992;-79
2023/10/02 05:06:43;;;;;;;24.20;10.17;;;9.60;55.70;;;;;;5021584;28;46528;-79
2023/10/02 05:11:50;;;;;;;25.83;11.10;;;9.60;54.40;;;;;;5019205;28;46374;-79
2023/10/02 05:14:18;;;;;;;26.43;10.10;;;9.60;54.40;;;;;;5018882;28;47285;-79
2023/10/02 05:16:46;;;;;;;28.67;10.57;;;9.60;54.40;;;;;;5021494;28;46439;-78
2023/10/02 05:19:15;;;;;;;28.63;10.77;;;9.60;54.40;;;;;;5020206;28;46488;-78
2023/10/02 05:21:50;;;;;;;29.43;10.07;;;9.60;54.40;;;;;;5019204;28;46403;-79
2023/10/02 05:24:18;;;;;;;24.70;9.90;;;9.60;54.20;;;;;;5020122;28;47079;-78
2023/10/02 05:26:44;;;;;;;22.00;9.40;;;9.70;54.30;;;;;;5009868;28;46482;-78
2023/10/02 05:29:35;;;;;;;31.93;12.00;;;9.70;54.20;;;;;;5001398;28;46489;-79
2023/10/02 05:32:16;;;;;;;28.40;11.57;;;9.80;54.10;;;;;;5001664;28;46722;-81
2023/10/02 05:34:58;;;;;;;29.20;11.17;;;9.80;53.90;;;;;;5022994;28;46456;-78
2023/10/02 05:37:30;;;;;;;22.80;10.27;;;9.90;53.80;;;;;;5019932;28;46675;-79
2023/10/02 05:50:57;;;;;;;19.67;9.23;;;10.10;52.60;;;;;;5022186;28;46593;-81
2023/10/02 05:53:32;;;;;;;31.90;10.07;;;10.10;52.60;;;;;;5021974;28;46645;-80
2023/10/02 05:58:33;;;;;;;29.50;10.47;;;10.30;52.10;;;;;;5019446;28;45870;-80
2023/10/02 06:01:06;;;;;;;27.03;9.63;;;10.30;52.00;;;;;;5021774;28;46544;-78
2023/10/02 06:03:35;;;;;;;15.13;8.63;;;10.40;52.10;;;;;;5022776;28;46704;-81
2023/10/02 06:06:24;;;;;;;25.43;10.80;;;10.50;52.10;;;;;;5022879;28;46949;-79
2023/10/02 06:09:12;;;;;;;23.90;9.47;;;10.60;52.20;;;;;;5021857;28;45858;-80
2023/10/02 06:11:59;;;;;;;27.07;11.67;;;10.70;52.20;;;;;;5020466;28;46596;-77
2023/10/02 06:14:24;;;;;;;33.63;11.63;;;10.80;52.40;;;;;;5018463;28;47195;-80
2023/10/02 06:16:52;;;;;;;26.70;10.53;;;11.00;51.80;;;;;;5018369;28;46706;-80
2023/10/02 06:19:18;;;;;;;31.33;12.47;;;11.10;51.60;;;;;;5019089;28;46443;-79
2023/10/02 06:22:04;;;;;;;36.07;12.43;;;11.30;51.20;;;;;;5017786;28;46243;-78
2023/10/02 06:24:30;;;;;;;30.30;11.10;;;11.40;50.90;;;;;;5018498;28;46443;-79
2023/10/02 06:26:57;;;;;;;28.27;11.33;;;11.60;50.60;;;;;;5018056;28;46191;-79
2023/10/02 06:29:28;;;;;;;37.17;11.63;;;11.80;51.60;;;;;;5019475;28;46699;-79
2023/10/02 06:31:58;;;;;;;36.87;14.07;;;12.00;50.20;;;;;;5019446;28;46697;-80
2023/10/02 06:34:37;;;;;;;35.03;14.00;;;12.20;50.00;;;;;;5000142;28;46469;-80
2023/10/02 06:37:16;;;;;;;35.83;12.73;;;12.30;49.70;;;;;;4999396;28;48573;-82
2023/10/02 06:39:47;;;;;;;38.47;14.20;;;12.50;49.40;;;;;;5021730;28;46492;-80
2023/10/02 06:42:17;;;;;;;29.83;13.13;;;12.60;49.10;;;;;;5018671;28;46788;-81
2023/10/02 06:44:52;;;;;;;46.67;14.27;;;12.80;48.90;;;;;;5018454;28;46951;-80
2023/10/02 06:47:30;;;;;;;36.57;13.67;;;13.00;48.70;;;;;;5003327;28;49598;-78
2023/10/02 06:50:03;;;;;;;46.63;16.27;;;13.20;48.30;;;;;;5000522;28;46753;-79
2023/10/02 06:52:32;;;;;;;44.33;16.83;;;13.40;47.90;;;;;;5019074;28;46414;-80
2023/10/02 06:55:00;;;;;;;47.20;16.83;;;13.50;47.50;;;;;;5019191;28;46577;-80
2023/10/02 06:57:25;;;;;;;45.90;14.90;;;13.60;47.80;;;;;;4999805;28;48173;-80
2023/10/02 06:59:52;;;;;;;38.87;14.63;;;13.70;48.10;;;;;;5000175;28;46377;-79
2023/10/02 07:02:23;;;;;;;41.93;16.00;;;13.70;48.20;;;;;;5002330;28;46510;-79
2023/10/02 07:04:54;;;;;;;43.63;15.83;;;13.80;48.40;;;;;;5020644;28;45830;-79
2023/10/02 07:07:28;;;;;;;44.63;14.30;;;13.90;48.70;;;;;;5020921;28;46436;-79
2023/10/02 07:10:18;;;;;;;39.33;14.33;;;14.00;48.70;;;;;;5023879;28;46266;-80
2023/10/02 07:12:44;;;;;;;39.87;16.47;;;14.20;48.50;;;;;;5022155;28;46392;-80
2023/10/02 07:15:10;;;;;;;36.90;14.03;;;14.30;48.30;;;;;;5022143;28;46626;-79
2023/10/02 07:17:47;;;;;;;48.20;14.23;;;14.50;49.30;;;;;;5023862;28;47130;-79
2023/10/02 07:20:14;;;;;;;40.37;15.63;;;14.50;47.80;;;;;;5007838;28;46848;-79
2023/10/02 07:22:40;;;;;;;39.50;15.30;;;14.70;47.80;;;;;;5030117;28;45858;-79
2023/10/02 07:25:08;;;;;;;37.87;15.03;;;14.90;47.60;;;;;;5027470;28;46541;-79
2023/10/02 07:27:37;;;;;;;35.93;15.40;;;14.90;47.60;;;;;;5020834;28;48412;-78
2023/10/02 07:30:04;;;;;;;34.97;14.77;;;15.00;47.60;;;;;;5020242;28;46696;-80
2023/10/02 07:32:34;;;;;;;34.90;14.47;;;15.30;47.10;;;;;;5019700;28;46507;-80
2023/10/02 07:35:09;;;;;;;39.23;15.80;;;15.50;46.20;;;;;;5023427;28;46472;-79
2023/10/02 07:37:36;;;;;;;35.67;15.03;;;15.80;45.80;;;;;;5022968;28;46369;-78
2023/10/02 07:40:02;;;;;;;45.33;16.67;;;15.90;45.10;;;;;;5021731;28;45865;-79
2023/10/02 07:42:29;;;;;;;39.27;15.83;;;16.10;44.80;;;;;;5003592;28;46472;-79
2023/10/02 07:45:26;;;;;;;37.97;15.50;;;16.30;44.60;;;;;;5021734;28;46443;-81
2023/10/02 07:50:39;;;;;;;43.50;16.50;;;16.70;44.50;;;;;;5025715;28;46781;-80
2023/10/02 07:53:07;;;;;;;44.73;17.00;;;16.90;43.70;;;;;;4996020;28;46681;-80
2023/10/02 07:55:39;;;;;;;36.43;15.40;;;17.00;43.40;;;;;;5023611;28;47632;-79
2023/10/02 07:58:09;;;;;;;41.23;17.87;;;17.20;43.00;;;;;;5022247;28;46628;-79
2023/10/02 08:00:40;;;;;;;45.40;17.13;;;17.40;42.60;;;;;;5021938;28;46478;-79
2023/10/02 08:03:31;;;;;;;47.27;18.17;;;17.50;41.90;;;;;;5021540;28;46451;-79
2023/10/02 08:06:00;;;;;;;49.80;17.93;;;17.60;41.60;;;;;;5002206;28;46418;-78
2023/10/02 08:08:33;;;;;;;48.93;19.83;;;17.70;41.20;;;;;;5018823;28;46441;-78
2023/10/02 08:11:06;;;;;;;46.90;17.57;;;17.80;40.90;;;;;;5020082;28;46440;-77
2023/10/02 08:13:48;;;;;;;42.10;18.33;;;17.90;40.90;;;;;;5020812;28;46435;-81
2023/10/02 08:16:17;;;;;;;56.10;20.23;;;18.00;40.40;;;;;;5020096;28;45885;-80
2023/10/02 08:18:57;;;;;;;55.60;19.00;;;18.20;40.00;;;;;;5002251;28;49239;-79
2023/10/02 08:21:35;;;;;;;54.50;19.90;;;18.40;39.40;;;;;;5001478;28;46574;-80
2023/10/02 08:24:05;;;;;;;51.13;20.80;;;18.50;38.60;;;;;;5004911;28;46701;-78
2023/10/02 08:26:40;;;;;;;51.67;19.40;;;18.60;38.20;;;;;;5007294;28;47247;-78
2023/10/02 08:29:18;;;;;;;49.33;19.00;;;18.80;37.80;;;;;;5019242;28;46400;-80
2023/10/02 08:31:47;;;;;;;54.27;20.20;;;18.90;37.40;;;;;;5020764;28;46397;-78
2023/10/02 08:34:19;;;;;;;57.53;20.93;;;19.00;37.20;;;;;;5019762;28;46514;-78
2023/10/02 08:36:57;;;;;;;56.73;20.57;;;19.10;36.80;;;;;;5024210;28;46533;-79
2023/10/02 08:39:40;;;;;;;56.30;22.10;;;19.20;36.50;;;;;;5009637;28;49047;-79
2023/10/02 08:42:10;;;;;;;55.37;19.57;;;19.30;36.20;;;;;;5020701;28;46491;-79
2023/10/02 08:44:40;;;;;;;51.30;20.57;;;19.40;36.10;;;;;;5004088;28;46408;-80
2023/10/02 08:47:11;;;;;;;60.83;21.03;;;19.60;35.70;;;;;;5020450;28;46584;-80
2023/10/02 08:49:38;;;;;;;57.10;20.90;;;19.70;35.30;;;;;;5019701;28;46400;-79
2023/10/02 08:52:11;;;;;;;57.57;20.60;;;19.80;34.80;;;;;;5002299;28;46452;-79
2023/10/02 08:54:39;;;;;;;50.83;21.57;;;19.80;33.90;;;;;;5020306;28;46561;-81
2023/10/02 08:57:06;;;;;;;52.07;19.90;;;19.90;33.90;;;;;;5019093;28;46563;-81
2023/10/02 08:59:38;;;;;;;55.60;21.57;;;20.00;35.30;;;;;;5000386;28;48188;-80
2023/10/02 09:02:14;;;;;;;52.20;19.27;;;20.10;34.00;;;;;;5017851;28;46674;-80
2023/10/02 09:04:42;;;;;;;51.10;20.20;;;20.30;33.20;;;;;;5021427;28;46592;-80
2023/10/02 09:10:24;;;;;;;52.30;19.90;;;20.50;32.70;;;;;;5011474;28;47267;-80
2023/10/02 09:13:10;;;;;;;54.00;20.67;;;20.60;32.50;;;;;;5020733;28;46345;-81
2023/10/02 09:15:37;;;;;;;48.73;17.80;;;20.60;31.90;;;;;;5020371;28;46950;-80
2023/10/02 09:18:19;;;;;;;55.40;19.87;;;20.60;32.00;;;;;;5019219;28;46462;-79
2023/10/02 09:21:13;;;;;;;48.13;19.30;;;20.70;31.90;;;;;;5018856;28;46468;-78
2023/10/02 09:23:49;;;;;;;45.90;19.40;;;20.90;31.30;;;;;;5023283;28;46394;-79
2023/10/02 09:26:27;;;;;;;42.73;18.10;;;21.10;31.20;;;;;;5021330;28;46422;-78
2023/10/02 09:29:00;;;;;;;46.60;18.53;;;21.20;30.60;;;;;;5019863;28;46441;-80
2023/10/02 09:31:27;;;;;;;45.77;17.63;;;21.20;30.30;;;;;;5024070;28;46336;-79
2023/10/02 09:33:54;;;;;;;49.43;20.30;;;21.30;30.30;;;;;;5020647;28;46346;-80
2023/10/02 09:36:35;;;;;;;44.10;18.07;;;21.40;30.00;;;;;;5023182;28;46405;-79
2023/10/02 09:39:31;;;;;;;46.93;20.00;;;21.40;29.60;;;;;;5004131;28;46572;-81
2023/10/02 09:41:53;;;;;;;43.67;18.67;;;21.30;29.70;;;;;;5019484;28;47132;-79
2023/10/02 09:44:22;;;;;;;49.00;19.30;;;21.40;30.70;;;;;;5018666;28;46428;-79
2023/10/02 09:46:51;;;;;;;51.70;19.77;;;21.50;29.30;;;;;;5020178;28;46516;-81
2023/10/02 09:49:24;;;;;;;47.20;20.33;;;21.50;29.00;;;;;;5000404;28;46534;-79
2023/10/02 09:52:15;;;;;;;51.83;20.10;;;21.50;28.70;;;;;;5017513;28;46663;-80
2023/10/02 09:54:54;;;;;;;44.47;18.53;;;21.50;28.80;;;;;;5018754;28;46665;-79
2023/10/02 09:57:25;;;;;;;45.17;18.80;;;21.60;28.50;;;;;;5018584;28;46876;-79
2023/10/02 09:59:55;;;;;;;50.50;20.70;;;21.80;28.20;;;;;;5017945;28;46717;-80
2023/10/02 10:05:22;;;;;;;46.10;19.10;;;22.00;27.80;;;;;;5018912;28;46669;-79
2023/10/02 10:08:16;;;;;;;47.07;20.17;;;22.10;27.20;;;;;;5017559;28;46777;-78
2023/10/02 10:10:50;;;;;;;54.77;18.27;;;22.30;27.00;;;;;;5018634;28;46586;-76
2023/10/02 10:13:36;;;;;;;50.60;20.07;;;22.40;26.60;;;;;;5017725;28;47761;-79
2023/10/02 10:16:20;;;;;;;44.50;18.17;;;22.50;26.20;;;;;;5019656;28;46483;-80
2023/10/02 10:19:26;;;;;;;44.57;18.23;;;22.60;26.00;;;;;;5010927;28;46769;-78
2023/10/02 10:21:57;;;;;;;46.57;20.30;;;22.70;25.70;;;;;;5019358;28;46484;-80
2023/10/02 10:24:34;;;;;;;40.60;17.07;;;22.80;25.60;;;;;;5000004;28;47317;-79
2023/10/02 10:27:03;;;;;;;44.50;19.27;;;22.90;25.10;;;;;;5006839;28;46516;-78
2023/10/02 10:29:41;;;;;;;45.23;19.30;;;22.90;25.00;;;;;;5018244;28;46526;-80
2023/10/02 10:32:23;;;;;;;51.77;18.90;;;22.90;24.50;;;;;;4991791;28;46410;-79
2023/10/02 10:35:11;;;;;;;42.70;18.30;;;23.00;24.50;;;;;;5020504;28;46393;-78
2023/10/02 10:37:42;;;;;;;49.23;19.80;;;23.00;24.60;;;;;;5018840;28;46401;-79
2023/10/02 10:40:43;;;;;;;45.97;18.57;;;23.20;24.70;;;;;;5006599;28;46234;-80
2023/10/02 10:43:00;;;;;;;42.37;19.03;;;23.20;24.50;;;;;;5024389;28;46484;-78
2023/10/02 10:45:33;;;;;;;47.60;19.20;;;23.30;23.60;;;;;;5022353;28;46376;-79
2023/10/02 10:47:58;;;;;;;44.70;19.13;;;23.40;23.60;;;;;;5021464;28;46421;-80
2023/10/02 10:50:30;;;;;;;44.77;20.00;;;23.40;23.40;;;;;;5021160;28;46446;-80
2023/10/02 10:53:26;;;;;;;44.20;19.13;;;23.40;22.90;;;;;;5023502;28;46769;-78
2023/10/02 10:55:49;;;;;;;43.67;19.10;;;23.30;22.60;;;;;;5021509;28;46457;-78
2023/10/02 10:58:31;;;;;;;49.67;19.33;;;23.50;22.80;;;;;;5021345;28;46364;-80
2023/10/02 11:00:59;;;;;;;48.50;19.10;;;23.50;22.30;;;;;;5022922;28;46596;-80
2023/10/02 11:03:26;;;;;;;44.70;19.13;;;23.50;21.60;;;;;;5004755;28;46389;-80
2023/10/02 11:05:58;;;;;;;44.57;18.27;;;23.40;21.90;;;;;;5022241;28;46688;-80
2023/10/02 11:08:23;;;;;;;45.03;19.00;;;23.30;21.70;;;;;;5022385;28;45872;-80
2023/10/02 11:11:48;;;;;;;42.93;19.50;;;23.40;21.80;;;;;;5021627;28;46444;-79
2023/10/02 11:14:03;;;;;;;40.77;17.07;;;23.60;21.30;;;;;;5020912;28;46540;-80
2023/10/02 11:16:34;;;;;;;42.03;18.20;;;23.70;21.40;;;;;;5022221;28;46578;-80
2023/10/02 11:19:21;;;;;;;42.80;18.83;;;23.80;21.00;;;;;;5022870;28;46159;-79
2023/10/02 11:22:03;;;;;;;47.40;18.77;;;23.90;21.70;;;;;;5025952;28;46813;-78
2023/10/02 11:24:29;;;;;;;45.47;19.27;;;24.00;20.60;;;;;;5003233;28;46980;-80
2023/10/02 11:27:06;;;;;;;49.70;19.97;;;24.10;20.70;;;;;;5022990;28;47005;-80
2023/10/02 11:29:40;;;;;;;48.60;18.50;;;24.00;20.00;;;;;;5021289;28;46610;-78
2023/10/02 11:32:19;;;;;;;46.57;18.93;;;24.00;20.30;;;;;;5001936;28;46534;-80
2023/10/02 11:34:49;;;;;;;44.83;18.13;;;23.90;20.10;;;;;;5010121;28;46421;-78
2023/10/02 11:37:16;;;;;;;53.20;19.23;;;24.00;20.10;;;;;;5020652;28;46485;-76
2023/10/02 11:39:44;;;;;;;55.40;20.23;;;24.20;20.10;;;;;;5022063;28;46572;-77
2023/10/02 11:42:10;;;;;;;43.97;19.40;;;24.10;19.60;;;;;;5021059;28;46837;-79
2023/10/02 11:44:38;;;;;;;51.90;19.77;;;24.20;19.30;;;;;;5002651;28;46396;-79
2023/10/02 11:47:04;;;;;;;51.27;21.00;;;24.20;18.80;;;;;;5021251;28;46955;-79
2023/10/02 11:49:29;;;;;;;49.53;20.40;;;24.30;18.80;;;;;;5004296;28;46495;-79
2023/10/02 11:52:02;;;;;;;54.27;20.90;;;24.30;18.70;;;;;;5021298;28;46504;-80
2023/10/02 11:54:28;;;;;;;46.60;20.70;;;24.30;18.30;;;;;;5023454;28;46496;-80
2023/10/02 11:56:54;;;;;;;55.63;21.60;;;24.30;18.30;;;;;;5022368;28;46451;-80
2023/10/02 11:59:19;;;;;;;58.50;21.87;;;24.30;18.20;;;;;;5022569;28;46898;-80
2023/10/02 12:01:47;;;;;;;44.43;20.17;;;24.30;18.00;;;;;;5003811;28;46448;-79
2023/10/02 12:04:13;;;;;;;52.20;22.13;;;24.30;17.80;;;;;;5005112;28;46407;-78
2023/10/02 12:06:38;;;;;;;62.40;21.93;;;24.30;17.50;;;;;;5021655;28;46974;-79
2023/10/02 12:09:05;;;;;;;49.23;21.97;;;24.40;17.40;;;;;;5022376;28;46429;-79
2023/10/02 12:11:34;;;;;;;55.03;23.03;;;24.50;17.30;;;;;;5021128;28;46494;-80
2023/10/02 12:14:02;;;;;;;54.30;21.87;;;24.50;17.00;;;;;;5008614;28;46461;-78
2023/10/02 12:16:28;;;;;;;54.47;23.50;;;24.60;16.80;;;;;;5024494;28;46545;-80
2023/10/02 12:18:54;;;;;;;56.93;23.00;;;24.60;16.40;;;;;;5023269;28;46486;-80
2023/10/02 12:21:21;;;;;;;56.57;22.40;;;24.60;16.10;;;;;;5025132;28;46401;-81
2023/10/02 12:23:48;;;;;;;54.80;22.80;;;24.70;16.00;;;;;;5025909;28;46466;-81
2023/10/02 12:26:15;;;;;;;58.67;24.57;;;24.60;15.80;;;;;;5006072;28;48576;-79
2023/10/02 12:28:41;;;;;;;53.77;23.10;;;24.60;15.50;;;;;;5019810;28;46124;-79
2023/10/02 12:31:14;;;;;;;67.10;24.90;;;24.70;15.20;;;;;;5003685;28;46353;-78
2023/10/02 12:33:44;;;;;;;62.80;24.37;;;24.80;14.70;;;;;;5021014;28;46548;-79
2023/10/02 12:36:17;;;;;;;56.47;22.70;;;24.80;14.70;;;;;;5021104;28;46463;-78
2023/10/02 12:38:50;;;;;;;57.43;23.53;;;24.70;14.70;;;;;;5020950;28;46456;-79
2023/10/02 12:41:17;;;;;;;61.17;24.97;;;24.70;14.60;;;;;;4996171;28;46549;-80
2023/10/02 12:43:46;;;;;;;62.47;26.17;;;24.60;14.60;;;;;;5020719;28;46745;-79
2023/10/02 12:46:16;;;;;;;58.73;23.80;;;24.60;15.50;;;;;;5021459;28;47248;-80
2023/10/02 12:48:47;;;;;;;64.87;24.73;;;24.70;14.60;;;;;;5022093;28;46482;-79
2023/10/02 12:51:17;;;;;;;61.47;25.20;;;24.80;14.70;;;;;;5021769;28;46349;-80
2023/10/02 12:53:43;;;;;;;53.17;22.70;;;24.80;14.60;;;;;;5004372;28;46523;-80
2023/10/02 12:56:15;;;;;;;56.20;24.50;;;24.80;14.30;;;;;;5025031;28;47019;-81
2023/10/02 12:58:41;;;;;;;58.33;24.70;;;24.80;14.20;;;;;;5023882;28;46344;-80
2023/10/02 13:01:06;;;;;;;59.90;24.57;;;24.80;14.00;;;;;;5022592;28;46508;-80
2023/10/02 13:03:32;;;;;;;62.33;25.10;;;24.80;13.70;;;;;;5023937;28;46471;-80
2023/10/02 13:06:03;;;;;;;64.07;24.17;;;24.80;13.50;;;;;;5022876;28;46610;-80
2023/10/02 13:08:29;;;;;;;68.40;26.20;;;24.80;13.40;;;;;;5026913;28;46730;-80
2023/10/02 13:10:55;;;;;;;61.67;24.53;;;24.90;13.40;;;;;;5027059;28;46539;-83
2023/10/02 13:13:21;;;;;;;53.47;23.53;;;25.00;13.10;;;;;;5026736;28;46606;-82
2023/10/02 13:15:51;;;;;;;58.07;25.03;;;25.00;13.00;;;;;;5004910;28;48091;-78
2023/10/02 13:18:16;;;;;;;64.57;27.30;;;25.00;12.70;;;;;;5019531;28;46515;-79
2023/10/02 13:20:46;;;;;;;68.10;26.20;;;25.00;12.40;;;;;;5019602;28;46412;-78
2023/10/02 13:23:12;;;;;;;61.20;26.33;;;25.00;12.40;;;;;;5018642;28;46643;-78
2023/10/02 13:25:42;;;;;;;57.57;23.57;;;25.10;12.40;;;;;;5020807;28;46568;-79
2023/10/02 13:28:11;;;;;;;60.50;27.60;;;25.10;12.20;;;;;;5018067;28;46408;-79
2023/10/02 13:30:38;;;;;;;70.57;25.10;;;25.10;12.20;;;;;;4994399;28;46563;-79
2023/10/02 13:33:04;;;;;;;59.87;25.83;;;25.20;12.00;;;;;;5019832;28;46696;-78
2023/10/02 13:35:32;;;;;;;63.77;26.00;;;25.30;11.90;;;;;;5020729;28;46290;-80
2023/10/02 13:38:00;;;;;;;60.03;24.97;;;25.40;11.70;;;;;;5019123;28;46058;-79
2023/10/02 13:40:26;;;;;;;59.47;25.07;;;25.40;11.70;;;;;;5018964;28;46346;-80
2023/10/02 13:42:52;;;;;;;59.70;24.40;;;25.30;11.70;;;;;;5021357;28;46661;-78
2023/10/02 13:45:24;;;;;;;58.83;25.20;;;25.20;11.60;;;;;;5019855;28;46330;-80
2023/10/02 13:47:52;;;;;;;58.67;25.60;;;25.30;11.70;;;;;;5005138;28;46407;-78
2023/10/02 13:50:19;;;;;;;59.30;26.07;;;25.30;11.70;;;;;;5023996;28;46482;-78